createdAt,value
2018-08-02T00:00:04.872Z,1015.90
2018-08-02T00:01:57.876Z,1015.89
2018-08-02T00:02:57.937Z,1015.89
2018-08-02T00:04:50.939Z,1015.88
2018-08-02T00:05:51.002Z,1015.87
2018-08-02T00:07:44.002Z,1015.89
2018-08-02T00:08:44.062Z,1015.88
2018-08-02T00:10:37.062Z,1015.90
2018-08-02T00:11:37.127Z,1015.91
2018-08-02T00:13:30.130Z,1015.84
2018-08-02T00:14:30.202Z,1015.88
2018-08-02T00:16:23.192Z,1015.86
2018-08-02T00:17:23.252Z,1015.91
2018-08-02T00:19:16.248Z,1015.89
2018-08-02T00:20:16.312Z,1015.87
2018-08-02T00:22:09.322Z,1015.87
2018-08-02T00:23:09.378Z,1015.85
2018-08-02T00:25:02.374Z,1015.87
2018-08-02T00:26:02.442Z,1015.90
2018-08-02T00:27:55.444Z,1015.89
2018-08-02T00:28:55.505Z,1015.85
2018-08-02T00:30:48.508Z,1015.89
2018-08-02T00:31:48.568Z,1015.89
2018-08-02T00:33:41.570Z,1015.86
2018-08-02T00:34:41.630Z,1015.87
2018-08-02T00:36:34.634Z,1015.84
2018-08-02T00:37:34.693Z,1015.84
2018-08-02T00:39:27.694Z,1015.90
2018-08-02T00:40:27.765Z,1015.85
2018-08-02T00:42:20.759Z,1015.89
2018-08-02T00:43:20.820Z,1015.89
2018-08-02T00:45:13.817Z,1015.86
2018-08-02T00:46:13.880Z,1015.87
2018-08-02T00:48:06.906Z,1015.87
2018-08-02T00:49:06.970Z,1015.87
2018-08-02T00:50:59.965Z,1015.85
2018-08-02T00:52:00.031Z,1015.88
2018-08-02T00:53:53.034Z,1015.79
2018-08-02T00:54:53.095Z,1015.80
2018-08-02T00:56:46.092Z,1015.78
2018-08-02T00:57:46.159Z,1015.73
2018-08-02T00:59:39.161Z,1015.76
2018-08-02T01:00:39.220Z,1015.71
2018-08-02T01:02:32.225Z,1015.72
2018-08-02T01:03:32.284Z,1015.69
2018-08-02T01:05:25.280Z,1015.72
2018-08-02T01:06:25.346Z,1015.73
2018-08-02T01:08:18.350Z,1015.72
2018-08-02T01:09:18.410Z,1015.77
2018-08-02T01:11:11.413Z,1015.80
2018-08-02T01:12:11.479Z,1015.76
2018-08-02T01:14:04.482Z,1015.74
2018-08-02T01:15:04.541Z,1015.76
2018-08-02T01:16:58.048Z,1015.72
2018-08-02T01:17:58.109Z,1015.76
2018-08-02T01:19:51.112Z,1015.76
2018-08-02T01:20:51.166Z,1015.75
2018-08-02T01:22:44.173Z,1015.74
2018-08-02T01:23:44.232Z,1015.76
2018-08-02T01:25:37.228Z,1015.72
2018-08-02T01:26:37.293Z,1015.75
2018-08-02T01:28:30.297Z,1015.71
2018-08-02T01:29:30.353Z,1015.73
2018-08-02T01:31:23.356Z,1015.72
2018-08-02T01:32:23.435Z,1015.71
2018-08-02T01:34:16.428Z,1015.72
2018-08-02T01:35:16.475Z,1015.73
2018-08-02T01:37:09.478Z,1015.75
2018-08-02T01:38:09.552Z,1015.71
2018-08-02T01:40:02.548Z,1015.70
2018-08-02T01:41:02.604Z,1015.68
2018-08-02T01:42:55.603Z,1015.69
2018-08-02T01:43:55.739Z,1015.68
2018-08-02T01:45:48.654Z,1015.66
2018-08-02T01:46:48.720Z,1015.61
2018-08-02T01:48:41.722Z,1015.63
2018-08-02T01:49:41.781Z,1015.63
2018-08-02T01:51:34.782Z,1015.65
2018-08-02T01:52:34.841Z,1015.63
2018-08-02T01:54:27.844Z,1015.64
2018-08-02T01:55:27.916Z,1015.63
2018-08-02T01:57:20.899Z,1015.63
2018-08-02T01:58:20.964Z,1015.60
2018-08-02T02:00:13.968Z,1015.60
2018-08-02T02:01:14.038Z,1015.60
2018-08-02T02:03:07.025Z,1015.63
2018-08-02T02:04:07.087Z,1015.59
2018-08-02T02:06:00.089Z,1015.67
2018-08-02T02:07:00.149Z,1015.58
2018-08-02T02:08:53.147Z,1015.69
2018-08-02T02:09:53.206Z,1015.68
2018-08-02T02:11:46.209Z,1015.67
2018-08-02T02:12:46.272Z,1015.71
2018-08-02T02:14:39.275Z,1015.72
2018-08-02T02:15:39.333Z,1015.75
2018-08-02T02:17:32.837Z,1015.74
2018-08-02T02:18:32.904Z,1015.76
2018-08-02T02:20:25.904Z,1015.74
2018-08-02T02:21:25.965Z,1015.73
2018-08-02T02:23:18.963Z,1015.75
2018-08-02T02:24:19.030Z,1015.74
2018-08-02T02:26:12.035Z,1015.69
2018-08-02T02:27:12.094Z,1015.70
2018-08-02T02:29:05.099Z,1015.70
2018-08-02T02:30:05.158Z,1015.70
2018-08-02T02:31:58.157Z,1015.65
2018-08-02T02:32:58.222Z,1015.65
2018-08-02T02:34:51.220Z,1015.64
2018-08-02T02:35:51.278Z,1015.65
2018-08-02T02:37:44.270Z,1015.68
2018-08-02T02:38:44.335Z,1015.65
2018-08-02T02:40:37.337Z,1015.69
2018-08-02T02:41:37.397Z,1015.72
2018-08-02T02:43:30.392Z,1015.66
2018-08-02T02:44:30.475Z,1015.66
2018-08-02T02:46:23.457Z,1015.63
2018-08-02T02:47:23.516Z,1015.62
2018-08-02T02:49:16.519Z,1015.64
2018-08-02T02:50:16.575Z,1015.65
2018-08-02T02:52:09.584Z,1015.65
2018-08-02T02:53:09.636Z,1015.65
2018-08-02T02:55:02.643Z,1015.64
2018-08-02T02:56:02.696Z,1015.68
2018-08-02T02:57:55.688Z,1015.70
2018-08-02T02:58:55.755Z,1015.70
2018-08-02T03:00:48.756Z,1015.70
2018-08-02T03:01:48.812Z,1015.71
2018-08-02T03:03:41.807Z,1015.76
2018-08-02T03:04:41.875Z,1015.74
2018-08-02T03:06:34.874Z,1015.77
2018-08-02T03:07:34.932Z,1015.77
2018-08-02T03:09:27.927Z,1015.78
2018-08-02T03:10:27.990Z,1015.78
2018-08-02T03:12:21.007Z,1015.80
2018-08-02T03:13:21.058Z,1015.78
2018-08-02T03:15:14.045Z,1015.82
2018-08-02T03:16:14.118Z,1015.81
2018-08-02T03:18:07.156Z,1015.85
2018-08-02T03:19:07.172Z,1015.85
2018-08-02T03:21:00.170Z,1015.89
2018-08-02T03:22:00.229Z,1015.92
2018-08-02T03:23:53.225Z,1015.98
2018-08-02T03:24:53.290Z,1015.95
2018-08-02T03:26:46.291Z,1015.99
2018-08-02T03:27:46.357Z,1015.98
2018-08-02T03:29:39.353Z,1015.98
2018-08-02T03:30:39.422Z,1015.99
2018-08-02T03:32:32.416Z,1015.99
2018-08-02T03:33:32.477Z,1016.00
2018-08-02T03:35:25.470Z,1016.02
2018-08-02T03:36:25.538Z,1016.03
2018-08-02T03:38:18.537Z,1016.10
2018-08-02T03:39:18.596Z,1016.10
2018-08-02T03:41:11.595Z,1016.14
2018-08-02T03:42:11.660Z,1016.10
2018-08-02T03:44:04.662Z,1016.13
2018-08-02T03:45:04.722Z,1016.18
2018-08-02T03:46:57.723Z,1016.21
2018-08-02T03:47:57.792Z,1016.22
2018-08-02T03:49:50.792Z,1016.26
2018-08-02T03:50:50.853Z,1016.22
2018-08-02T03:52:43.857Z,1016.28
2018-08-02T03:53:43.957Z,1016.31
2018-08-02T03:55:36.906Z,1016.33
2018-08-02T03:56:36.975Z,1016.35
2018-08-02T03:58:29.984Z,1016.37
2018-08-02T03:59:30.044Z,1016.37
2018-08-02T04:01:23.051Z,1016.37
2018-08-02T04:02:23.101Z,1016.42
2018-08-02T04:04:16.100Z,1016.39
2018-08-02T04:05:16.160Z,1016.43
2018-08-02T04:07:09.194Z,1016.45
2018-08-02T04:08:09.489Z,1016.45
2018-08-02T04:10:02.221Z,1016.48
2018-08-02T04:11:02.276Z,1016.44
2018-08-02T04:12:55.282Z,1016.46
2018-08-02T04:13:55.334Z,1016.46
2018-08-02T04:15:48.326Z,1016.50
2018-08-02T04:16:48.393Z,1016.53
2018-08-02T04:18:41.392Z,1016.57
2018-08-02T04:19:41.450Z,1016.59
2018-08-02T04:21:34.444Z,1016.64
2018-08-02T04:22:34.509Z,1016.63
2018-08-02T04:24:27.511Z,1016.66
2018-08-02T04:25:27.569Z,1016.62
2018-08-02T04:27:20.565Z,1016.67
2018-08-02T04:28:20.636Z,1016.66
2018-08-02T04:30:13.631Z,1016.65
2018-08-02T04:31:13.688Z,1016.63
2018-08-02T04:33:06.680Z,1016.64
2018-08-02T04:34:06.743Z,1016.61
2018-08-02T04:35:59.745Z,1016.59
2018-08-02T04:36:59.806Z,1016.64
2018-08-02T04:38:52.816Z,1016.58
2018-08-02T04:39:52.862Z,1016.61
2018-08-02T04:41:45.869Z,1016.61
2018-08-02T04:42:45.928Z,1016.58
2018-08-02T04:44:38.927Z,1016.58
2018-08-02T04:45:38.982Z,1016.62
2018-08-02T04:47:31.977Z,1016.62
2018-08-02T04:48:32.043Z,1016.61
2018-08-02T04:50:25.043Z,1016.62
2018-08-02T04:51:25.100Z,1016.59
2018-08-02T04:53:18.093Z,1016.58
2018-08-02T04:54:18.157Z,1016.57
2018-08-02T04:56:11.158Z,1016.58
2018-08-02T04:57:11.218Z,1016.57
2018-08-02T04:59:04.208Z,1016.57
2018-08-02T05:00:04.274Z,1016.56
2018-08-02T05:01:57.275Z,1016.57
2018-08-02T05:02:57.330Z,1016.56
2018-08-02T05:04:50.343Z,1016.56
2018-08-02T05:05:50.388Z,1016.58
2018-08-02T05:07:43.390Z,1016.60
2018-08-02T05:08:43.448Z,1016.58
2018-08-02T05:10:36.452Z,1016.55
2018-08-02T05:11:36.509Z,1016.56
2018-08-02T05:13:29.537Z,1016.59
2018-08-02T05:14:29.570Z,1016.55
2018-08-02T05:16:22.571Z,1016.58
2018-08-02T05:17:22.629Z,1016.62
2018-08-02T05:19:15.631Z,1016.59
2018-08-02T05:20:15.692Z,1016.58
2018-08-02T05:22:08.696Z,1016.53
2018-08-02T05:23:08.752Z,1016.59
2018-08-02T05:25:01.746Z,1016.62
2018-08-02T05:26:01.820Z,1016.65
2018-08-02T05:27:54.816Z,1016.71
2018-08-02T05:28:54.872Z,1016.72
2018-08-02T05:30:47.872Z,1016.73
2018-08-02T05:31:47.930Z,1016.75
2018-08-02T05:33:40.963Z,1016.79
2018-08-02T05:34:41.048Z,1016.79
2018-08-02T05:36:34.421Z,1016.82
2018-08-02T05:37:34.054Z,1016.84
2018-08-02T05:39:27.049Z,1016.88
2018-08-02T05:40:27.117Z,1016.87
2018-08-02T05:42:20.116Z,1016.85
2018-08-02T05:43:20.173Z,1016.86
2018-08-02T05:45:13.170Z,1016.82
2018-08-02T05:46:13.236Z,1016.84
2018-08-02T05:48:06.246Z,1016.79
2018-08-02T05:49:06.300Z,1016.83
2018-08-02T05:50:59.292Z,1016.87
2018-08-02T05:51:59.359Z,1016.87
2018-08-02T05:53:52.362Z,1016.88
2018-08-02T05:54:52.418Z,1016.85
2018-08-02T05:56:45.421Z,1016.85
2018-08-02T05:57:45.487Z,1016.88
2018-08-02T05:59:38.479Z,1016.91
2018-08-02T06:00:38.540Z,1016.89
2018-08-02T06:02:31.546Z,1016.92
2018-08-02T06:03:31.603Z,1016.91
2018-08-02T06:05:24.601Z,1016.97
2018-08-02T06:06:24.664Z,1016.97
2018-08-02T06:08:17.666Z,1016.96
2018-08-02T06:09:17.724Z,1017.01
2018-08-02T06:11:10.721Z,1016.99
2018-08-02T06:12:10.784Z,1016.98
2018-08-02T06:14:03.789Z,1017.02
2018-08-02T06:15:03.844Z,1017.02
2018-08-02T06:16:56.864Z,1017.03
2018-08-02T06:17:56.909Z,1017.02
2018-08-02T06:19:49.903Z,1017.07
2018-08-02T06:20:49.969Z,1017.11
2018-08-02T06:22:42.973Z,1017.18
2018-08-02T06:23:43.034Z,1017.24
2018-08-02T06:25:36.035Z,1017.24
2018-08-02T06:26:36.099Z,1017.24
2018-08-02T06:28:29.103Z,1017.34
2018-08-02T06:29:29.163Z,1017.31
2018-08-02T06:31:22.168Z,1017.36
2018-08-02T06:32:22.240Z,1017.38
2018-08-02T06:34:15.267Z,1017.41
2018-08-02T06:35:15.329Z,1017.41
2018-08-02T06:37:08.332Z,1017.43
2018-08-02T06:38:08.402Z,1017.28
2018-08-02T06:40:01.415Z,1017.39
2018-08-02T06:41:01.479Z,1017.41
2018-08-02T06:42:54.486Z,1017.43
2018-08-02T06:43:54.554Z,1017.41
2018-08-02T06:45:47.594Z,1017.44
2018-08-02T06:46:47.631Z,1017.40
2018-08-02T06:48:40.645Z,1017.44
2018-08-02T06:49:40.711Z,1017.42
2018-08-02T06:51:33.726Z,1017.44
2018-08-02T06:52:33.814Z,1017.40
2018-08-02T06:54:26.809Z,1017.42
2018-08-02T06:55:26.882Z,1017.45
2018-08-02T06:57:19.889Z,1017.44
2018-08-02T06:58:19.966Z,1017.41
2018-08-02T07:00:13.009Z,1017.44
2018-08-02T07:01:13.055Z,1017.45
2018-08-02T07:03:06.068Z,1017.39
2018-08-02T07:04:06.144Z,1017.47
2018-08-02T07:05:59.204Z,1017.41
2018-08-02T07:06:59.234Z,1017.44
2018-08-02T07:08:52.289Z,1017.46
2018-08-02T07:09:52.333Z,1017.45
2018-08-02T07:11:45.851Z,1017.46
2018-08-02T07:12:45.926Z,1017.46
2018-08-02T07:14:38.949Z,1017.46
2018-08-02T07:15:39.016Z,1017.46
2018-08-02T07:17:32.031Z,1017.41
2018-08-02T07:18:32.107Z,1017.39
2018-08-02T07:20:25.135Z,1017.40
2018-08-02T07:21:25.202Z,1017.35
2018-08-02T07:23:18.219Z,1017.40
2018-08-02T07:24:18.289Z,1017.39
2018-08-02T07:26:11.317Z,1017.36
2018-08-02T07:27:11.384Z,1017.39
2018-08-02T07:29:04.399Z,1017.37
2018-08-02T07:30:04.499Z,1017.35
2018-08-02T07:31:57.500Z,1017.24
2018-08-02T07:32:57.576Z,1017.47
2018-08-02T07:34:50.614Z,1017.49
2018-08-02T07:35:50.670Z,1017.45
2018-08-02T07:37:43.685Z,1017.44
2018-08-02T07:38:43.761Z,1017.45
2018-08-02T07:40:36.781Z,1017.29
2018-08-02T07:41:36.862Z,1017.49
2018-08-02T07:43:29.917Z,1017.48
2018-08-02T07:44:29.944Z,1017.47
2018-08-02T07:46:22.971Z,1017.57
2018-08-02T07:47:23.041Z,1017.51
2018-08-02T07:49:16.058Z,1017.48
2018-08-02T07:50:16.173Z,1017.48
2018-08-02T07:52:09.159Z,1017.49
2018-08-02T07:53:09.223Z,1017.46
2018-08-02T07:55:02.241Z,1017.45
2018-08-02T07:56:02.313Z,1017.48
2018-08-02T07:57:55.350Z,1017.51
2018-08-02T07:58:55.410Z,1017.48
2018-08-02T08:00:48.437Z,1017.54
2018-08-02T08:01:48.505Z,1017.57
2018-08-02T08:03:41.527Z,1017.56
2018-08-02T08:04:41.602Z,1017.51
2018-08-02T08:06:34.629Z,1017.53
2018-08-02T08:07:34.699Z,1017.58
2018-08-02T08:09:27.725Z,1017.61
2018-08-02T08:10:27.797Z,1017.63
2018-08-02T08:12:21.339Z,1017.67
2018-08-02T08:13:21.407Z,1017.58
2018-08-02T08:15:14.424Z,1017.63
2018-08-02T08:16:14.560Z,1017.61
2018-08-02T08:18:07.532Z,1017.62
2018-08-02T08:19:07.602Z,1017.61
2018-08-02T08:21:00.635Z,1017.57
2018-08-02T08:22:00.710Z,1017.57
2018-08-02T08:23:53.721Z,1017.59
2018-08-02T08:24:53.825Z,1017.58
2018-08-02T08:26:46.889Z,1017.61
2018-08-02T08:27:46.897Z,1017.62
2018-08-02T08:29:39.916Z,1017.63
2018-08-02T08:30:40.009Z,1017.61
2018-08-02T08:32:33.022Z,1017.63
2018-08-02T08:33:33.094Z,1017.59
2018-08-02T08:35:26.115Z,1017.63
2018-08-02T08:36:26.238Z,1017.64
2018-08-02T08:38:19.232Z,1017.59
2018-08-02T08:39:19.294Z,1017.61
2018-08-02T08:41:12.318Z,1017.61
2018-08-02T08:42:12.397Z,1017.59
2018-08-02T08:44:05.424Z,1017.62
2018-08-02T08:45:05.504Z,1017.65
2018-08-02T08:46:58.564Z,1017.61
2018-08-02T08:47:58.599Z,1017.67
2018-08-02T08:49:51.619Z,1017.68
2018-08-02T08:50:51.726Z,1017.64
2018-08-02T08:52:44.730Z,1017.66
2018-08-02T08:53:44.803Z,1017.61
2018-08-02T08:55:37.828Z,1017.58
2018-08-02T08:56:37.933Z,1017.57
2018-08-02T08:58:30.955Z,1017.56
2018-08-02T08:59:31.036Z,1017.55
2018-08-02T09:01:24.064Z,1017.55
2018-08-02T09:02:24.138Z,1017.57
2018-08-02T09:04:17.172Z,1017.54
2018-08-02T09:05:17.247Z,1017.60
2018-08-02T09:07:10.273Z,1017.59
2018-08-02T09:08:10.353Z,1017.60
2018-08-02T09:10:03.391Z,1017.61
2018-08-02T09:11:03.460Z,1017.60
2018-08-02T09:12:56.490Z,1017.59
2018-08-02T09:13:56.564Z,1017.56
2018-08-02T09:15:49.591Z,1017.59
2018-08-02T09:16:49.672Z,1017.61
2018-08-02T09:18:42.712Z,1017.63
2018-08-02T09:19:42.786Z,1017.61
2018-08-02T09:21:35.817Z,1017.60
2018-08-02T09:22:35.898Z,1017.55
2018-08-02T09:24:28.935Z,1017.51
2018-08-02T09:25:29.005Z,1017.53
2018-08-02T09:27:22.045Z,1017.51
2018-08-02T09:28:22.124Z,1017.46
2018-08-02T09:30:15.158Z,1017.43
2018-08-02T09:31:15.234Z,1017.31
2018-08-02T09:33:08.344Z,1017.25
2018-08-02T09:34:08.340Z,1017.21
2018-08-02T09:36:01.368Z,1017.19
2018-08-02T09:37:01.445Z,1017.15
2018-08-02T09:38:54.475Z,1017.22
2018-08-02T09:39:54.548Z,1017.16
2018-08-02T09:41:47.576Z,1017.13
2018-08-02T09:42:47.647Z,1017.09
2018-08-02T09:44:40.669Z,1017.15
2018-08-02T09:45:40.739Z,1017.07
2018-08-02T09:47:33.758Z,1017.08
2018-08-02T09:48:33.842Z,1017.05
2018-08-02T09:50:26.852Z,1017.04
2018-08-02T09:51:26.923Z,1017.03
2018-08-02T09:53:19.937Z,1017.03
2018-08-02T09:54:20.022Z,1017.01
2018-08-02T09:56:13.041Z,1017.02
2018-08-02T09:57:13.097Z,1016.99
2018-08-02T09:59:06.127Z,1017.05
2018-08-02T10:00:06.190Z,1016.98
2018-08-02T10:01:59.207Z,1016.95
2018-08-02T10:02:59.267Z,1016.95
2018-08-02T10:04:52.289Z,1016.95
2018-08-02T10:05:52.354Z,1016.97
2018-08-02T10:07:45.368Z,1016.99
2018-08-02T10:08:45.438Z,1016.94
2018-08-02T10:10:38.495Z,1016.88
2018-08-02T10:11:38.553Z,1016.91
2018-08-02T10:13:31.541Z,1016.95
2018-08-02T10:14:31.628Z,1016.98
2018-08-02T10:16:24.633Z,1016.97
2018-08-02T10:17:24.696Z,1016.97
2018-08-02T10:19:17.722Z,1016.92
2018-08-02T10:20:17.777Z,1016.87
2018-08-02T10:22:10.788Z,1016.90
2018-08-02T10:23:10.856Z,1016.87
2018-08-02T10:25:03.887Z,1016.87
2018-08-02T10:26:03.942Z,1016.84
2018-08-02T10:27:56.953Z,1016.83
2018-08-02T10:28:57.026Z,1016.83
2018-08-02T10:30:50.089Z,1016.84
2018-08-02T10:31:50.107Z,1016.84
2018-08-02T10:33:43.122Z,1016.86
2018-08-02T10:34:43.208Z,1016.84
2018-08-02T10:36:36.210Z,1016.86
2018-08-02T10:37:36.287Z,1016.82
2018-08-02T10:39:29.285Z,1016.82
2018-08-02T10:40:29.351Z,1016.79
2018-08-02T10:42:22.372Z,1016.86
2018-08-02T10:43:22.437Z,1016.84
2018-08-02T10:45:15.450Z,1016.82
2018-08-02T10:46:15.518Z,1016.91
2018-08-02T10:48:08.535Z,1016.84
2018-08-02T10:49:08.612Z,1016.83
2018-08-02T10:51:01.626Z,1016.82
2018-08-02T10:52:01.691Z,1016.78
2018-08-02T10:53:54.696Z,1016.76
2018-08-02T10:54:54.770Z,1016.81
2018-08-02T10:56:47.810Z,1016.82
2018-08-02T10:57:47.850Z,1016.79
2018-08-02T10:59:40.859Z,1016.78
2018-08-02T11:00:40.935Z,1016.72
2018-08-02T11:02:33.939Z,1016.71
2018-08-02T11:03:34.014Z,1016.71
2018-08-02T11:05:27.018Z,1016.80
2018-08-02T11:06:27.086Z,1016.82
2018-08-02T11:08:20.101Z,1016.78
2018-08-02T11:09:20.182Z,1016.81
2018-08-02T11:11:13.177Z,1016.76
2018-08-02T11:12:13.245Z,1016.80
2018-08-02T11:14:06.292Z,1016.72
2018-08-02T11:15:06.356Z,1016.76
2018-08-02T11:16:59.372Z,1016.80
2018-08-02T11:17:59.435Z,1016.78
2018-08-02T11:19:52.455Z,1016.74
2018-08-02T11:20:52.517Z,1016.72
2018-08-02T11:22:45.566Z,1016.68
2018-08-02T11:23:45.596Z,1016.62
2018-08-02T11:25:38.605Z,1016.64
2018-08-02T11:26:38.673Z,1016.67
2018-08-02T11:28:31.692Z,1016.68
2018-08-02T11:29:31.758Z,1016.69
2018-08-02T11:31:24.767Z,1016.67
2018-08-02T11:32:24.840Z,1016.65
2018-08-02T11:34:17.842Z,1016.65
2018-08-02T11:35:17.908Z,1016.67
2018-08-02T11:37:10.942Z,1016.64
2018-08-02T11:38:10.994Z,1016.68
2018-08-02T11:40:04.005Z,1016.66
2018-08-02T11:41:04.090Z,1016.68
2018-08-02T11:42:57.101Z,1016.65
2018-08-02T11:43:57.201Z,1016.67
2018-08-02T11:45:50.181Z,1016.68
2018-08-02T11:46:50.253Z,1016.67
2018-08-02T11:48:43.254Z,1016.62
2018-08-02T11:49:43.317Z,1016.62
2018-08-02T11:51:36.329Z,1016.60
2018-08-02T11:52:36.395Z,1016.60
2018-08-02T11:54:29.418Z,1016.63
2018-08-02T11:55:29.477Z,1016.63
2018-08-02T11:57:22.562Z,1016.64
2018-08-02T11:58:22.560Z,1016.56
2018-08-02T12:00:15.577Z,1016.55
2018-08-02T12:01:15.639Z,1016.51
2018-08-02T12:03:08.685Z,1016.55
2018-08-02T12:04:08.721Z,1016.55
2018-08-02T12:06:01.742Z,1016.51
2018-08-02T12:07:01.804Z,1016.50
2018-08-02T12:08:54.853Z,1016.49
2018-08-02T12:09:54.890Z,1016.49
2018-08-02T12:11:48.407Z,1016.48
2018-08-02T12:12:48.477Z,1016.47
2018-08-02T12:14:41.509Z,1016.48
2018-08-02T12:15:41.571Z,1016.44
2018-08-02T12:17:34.575Z,1016.44
2018-08-02T12:18:34.686Z,1016.48
2018-08-02T12:20:27.656Z,1016.48
2018-08-02T12:21:27.724Z,1016.45
2018-08-02T12:23:20.733Z,1016.43
2018-08-02T12:24:20.801Z,1016.42
2018-08-02T12:26:13.805Z,1016.40
2018-08-02T12:27:13.883Z,1016.40
2018-08-02T12:29:06.962Z,1016.39
2018-08-02T12:30:06.968Z,1016.34
2018-08-02T12:31:59.973Z,1016.30
2018-08-02T12:33:00.058Z,1016.34
2018-08-02T12:34:53.058Z,1016.33
2018-08-02T12:35:53.122Z,1016.29
2018-08-02T12:37:46.132Z,1016.27
2018-08-02T12:38:46.204Z,1016.28
2018-08-02T12:40:39.217Z,1016.25
2018-08-02T12:41:39.281Z,1016.18
2018-08-02T12:43:32.301Z,1016.21
2018-08-02T12:44:32.367Z,1016.19
2018-08-02T12:46:25.386Z,1016.16
2018-08-02T12:47:25.444Z,1016.18
2018-08-02T12:49:18.456Z,1016.17
2018-08-02T12:50:18.522Z,1016.18
2018-08-02T12:52:11.543Z,1016.18
2018-08-02T12:53:11.682Z,1016.13
2018-08-02T12:55:04.620Z,1016.13
2018-08-02T12:56:04.825Z,1016.17
2018-08-02T12:57:57.690Z,1016.14
2018-08-02T12:58:57.765Z,1016.13
2018-08-02T13:00:50.798Z,1016.17
2018-08-02T13:01:50.843Z,1016.13
2018-08-02T13:03:43.865Z,1016.12
2018-08-02T13:04:43.931Z,1016.07
2018-08-02T13:06:36.946Z,1016.11
2018-08-02T13:07:37.012Z,1016.08
2018-08-02T13:09:30.156Z,1016.08
2018-08-02T13:10:30.163Z,1016.06
2018-08-02T13:12:23.611Z,1016.03
2018-08-02T13:13:23.681Z,1016.00
2018-08-02T13:15:16.697Z,1015.99
2018-08-02T13:16:16.761Z,1015.96
2018-08-02T13:18:09.770Z,1015.97
2018-08-02T13:19:09.840Z,1015.97
2018-08-02T13:21:02.854Z,1015.94
2018-08-02T13:22:02.914Z,1015.97
2018-08-02T13:23:55.929Z,1015.93
2018-08-02T13:24:56.125Z,1015.90
2018-08-02T13:26:49.015Z,1015.92
2018-08-02T13:27:49.081Z,1015.95
2018-08-02T13:29:42.102Z,1015.89
2018-08-02T13:30:42.189Z,1015.94
2018-08-02T13:32:35.177Z,1015.92
2018-08-02T13:33:35.245Z,1015.90
2018-08-02T13:35:28.329Z,1015.90
2018-08-02T13:36:28.326Z,1015.86
2018-08-02T13:38:21.857Z,1015.89
2018-08-02T13:39:21.403Z,1015.90
2018-08-02T13:41:14.417Z,1015.87
2018-08-02T13:42:14.482Z,1015.84
2018-08-02T13:44:07.489Z,1015.83
2018-08-02T13:45:07.561Z,1015.85
2018-08-02T13:47:00.578Z,1015.80
2018-08-02T13:48:00.642Z,1015.80
2018-08-02T13:49:53.650Z,1015.79
2018-08-02T13:50:53.726Z,1015.76
2018-08-02T13:52:46.790Z,1015.75
2018-08-02T13:53:46.797Z,1015.74
2018-08-02T13:55:39.814Z,1015.76
2018-08-02T13:56:39.880Z,1015.77
2018-08-02T13:58:32.898Z,1015.75
2018-08-02T13:59:32.969Z,1015.74
2018-08-02T14:01:25.987Z,1015.69
2018-08-02T14:02:26.045Z,1015.68
2018-08-02T14:04:19.063Z,1015.75
2018-08-02T14:05:19.125Z,1015.72
2018-08-02T14:07:12.144Z,1015.69
2018-08-02T14:08:12.204Z,1015.73
2018-08-02T14:10:05.213Z,1015.74
2018-08-02T14:11:05.283Z,1015.71
2018-08-02T14:12:58.297Z,1015.72
2018-08-02T14:13:58.362Z,1015.72
2018-08-02T14:15:51.372Z,1015.70
2018-08-02T14:16:51.445Z,1015.68
2018-08-02T14:18:44.456Z,1015.70
2018-08-02T14:19:44.521Z,1015.65
2018-08-02T14:21:37.533Z,1015.63
2018-08-02T14:22:37.637Z,1015.63
2018-08-02T14:24:30.651Z,1015.63
2018-08-02T14:25:30.681Z,1015.61
2018-08-02T14:27:23.692Z,1015.58
2018-08-02T14:28:23.806Z,1015.58
2018-08-02T14:30:16.789Z,1015.53
2018-08-02T14:31:16.837Z,1015.54
2018-08-02T14:33:09.846Z,1015.51
2018-08-02T14:34:09.995Z,1015.51
2018-08-02T14:36:02.926Z,1015.52
2018-08-02T14:37:03.007Z,1015.52
2018-08-02T14:38:56.019Z,1015.53
2018-08-02T14:39:56.085Z,1015.53
2018-08-02T14:41:49.094Z,1015.55
2018-08-02T14:42:49.224Z,1015.50
2018-08-02T14:44:42.175Z,1015.56
2018-08-02T14:45:42.241Z,1015.55
2018-08-02T14:47:35.247Z,1015.54
2018-08-02T14:48:35.338Z,1015.57
2018-08-02T14:50:28.335Z,1015.55
2018-08-02T14:51:28.414Z,1015.54
2018-08-02T14:53:21.404Z,1015.54
2018-08-02T14:54:21.508Z,1015.59
2018-08-02T14:56:14.497Z,1015.58
2018-08-02T14:57:14.564Z,1015.58
2018-08-02T14:59:07.577Z,1015.61
2018-08-02T15:00:07.644Z,1015.62
2018-08-02T15:02:00.672Z,1015.57
2018-08-02T15:03:00.723Z,1015.59
2018-08-02T15:04:53.743Z,1015.63
2018-08-02T15:05:53.810Z,1015.60
2018-08-02T15:07:46.823Z,1015.62
2018-08-02T15:08:46.893Z,1015.59
2018-08-02T15:10:39.903Z,1015.62
2018-08-02T15:11:39.974Z,1015.63
2018-08-02T15:13:32.985Z,1015.62
2018-08-02T15:14:33.053Z,1015.61
2018-08-02T15:16:26.069Z,1015.58
2018-08-02T15:17:26.133Z,1015.58
2018-08-02T15:19:19.142Z,1015.61
2018-08-02T15:20:19.219Z,1015.61
2018-08-02T15:22:12.230Z,1015.64
2018-08-02T15:23:12.292Z,1015.62
2018-08-02T15:25:05.304Z,1015.57
2018-08-02T15:26:05.370Z,1015.59
2018-08-02T15:27:58.380Z,1015.59
2018-08-02T15:28:58.450Z,1015.55
2018-08-02T15:30:51.463Z,1015.54
2018-08-02T15:31:51.549Z,1015.56
2018-08-02T15:33:44.541Z,1015.48
2018-08-02T15:34:44.615Z,1015.52
2018-08-02T15:36:37.626Z,1015.48
2018-08-02T15:37:37.693Z,1015.49
2018-08-02T15:39:30.700Z,1015.49
2018-08-02T15:40:30.769Z,1015.49
2018-08-02T15:42:23.784Z,1015.49
2018-08-02T15:43:23.861Z,1015.47
2018-08-02T15:45:16.875Z,1015.46
2018-08-02T15:46:16.935Z,1015.49
2018-08-02T15:48:09.937Z,1015.46
2018-08-02T15:49:10.007Z,1015.46
2018-08-02T15:51:03.018Z,1015.47
2018-08-02T15:52:03.088Z,1015.50
2018-08-02T15:53:56.095Z,1015.49
2018-08-02T15:54:56.162Z,1015.47
2018-08-02T15:56:49.175Z,1015.51
2018-08-02T15:57:49.242Z,1015.52
2018-08-02T15:59:42.252Z,1015.52
2018-08-02T16:00:42.320Z,1015.50
2018-08-02T16:02:35.332Z,1015.48
2018-08-02T16:03:35.399Z,1015.48
2018-08-02T16:05:28.403Z,1015.51
2018-08-02T16:06:28.475Z,1015.47
2018-08-02T16:08:21.488Z,1015.46
2018-08-02T16:09:21.566Z,1015.47
2018-08-02T16:11:14.591Z,1015.46
2018-08-02T16:12:14.633Z,1015.43
2018-08-02T16:14:07.641Z,1015.38
2018-08-02T16:15:07.710Z,1015.42
2018-08-02T16:17:00.723Z,1015.39
2018-08-02T16:18:00.790Z,1015.34
2018-08-02T16:19:53.797Z,1015.33
2018-08-02T16:20:53.865Z,1015.34
2018-08-02T16:22:46.880Z,1015.35
2018-08-02T16:23:46.943Z,1015.31
2018-08-02T16:25:39.980Z,1015.32
2018-08-02T16:26:40.024Z,1015.28
2018-08-02T16:28:33.036Z,1015.32
2018-08-02T16:29:33.107Z,1015.27
2018-08-02T16:31:26.126Z,1015.29
2018-08-02T16:32:26.179Z,1015.31
2018-08-02T16:34:19.187Z,1015.31
2018-08-02T16:35:19.256Z,1015.33
2018-08-02T16:37:12.271Z,1015.29
2018-08-02T16:38:12.336Z,1015.29
2018-08-02T16:40:05.344Z,1015.30
2018-08-02T16:41:05.412Z,1015.31
2018-08-02T16:42:58.431Z,1015.28
2018-08-02T16:43:58.498Z,1015.30
2018-08-02T16:45:51.507Z,1015.34
2018-08-02T16:46:51.575Z,1015.31
2018-08-02T16:48:44.628Z,1015.31
2018-08-02T16:49:44.664Z,1015.29
2018-08-02T16:51:37.682Z,1015.35
2018-08-02T16:52:37.736Z,1015.32
2018-08-02T16:54:30.786Z,1015.35
2018-08-02T16:55:30.860Z,1015.37
2018-08-02T16:57:23.844Z,1015.35
2018-08-02T16:58:24.005Z,1015.34
2018-08-02T17:00:16.897Z,1015.36
2018-08-02T17:01:17.133Z,1015.39
2018-08-02T17:03:10.114Z,1015.39
2018-08-02T17:04:10.047Z,1015.40
2018-08-02T17:06:03.133Z,1015.39
2018-08-02T17:07:03.133Z,1015.38
2018-08-02T17:08:56.254Z,1015.44
2018-08-02T17:09:56.232Z,1015.42
2018-08-02T17:11:49.737Z,1015.37
2018-08-02T17:12:49.879Z,1015.40
2018-08-02T17:14:42.831Z,1015.42
2018-08-02T17:15:42.878Z,1015.40
2018-08-02T17:17:35.904Z,1015.41
2018-08-02T17:18:35.955Z,1015.42
2018-08-02T17:20:28.976Z,1015.47
2018-08-02T17:21:29.032Z,1015.47
2018-08-02T17:23:22.056Z,1015.49
2018-08-02T17:24:22.119Z,1015.52
2018-08-02T17:26:15.129Z,1015.48